Time;durP1;ratioP1;P1;durP2;ratioP2;P2;SDS_P1;SDS_P2;PMS_P1;PMS_P2;Temp;Humidity;BMP_temperature;BMP_pressure;BME280_temperature;BME280_humidity;BME280_pressure;Samples;Min_cycle;Max_cycle;Signal;HPM_P1;HPM_P2
2022/12/07 00:01:10;;;;;;;6.25;3.83;;;;;;;3.15;100.00;101877.03;6253428;22;20469;-78
2022/12/07 00:03:38;;;;;;;7.65;3.95;;;;;;;3.13;100.00;101878.53;6280242;22;20503;-79
2022/12/07 00:06:06;;;;;;;9.40;4.28;;;;;;;3.11;100.00;101873.63;6281011;22;20054;-78
2022/12/07 00:08:33;;;;;;;5.47;3.75;;;;;;;3.09;100.00;101873.22;6280123;22;20067;-80
2022/12/07 00:11:05;;;;;;;5.75;4.10;;;;;;;3.06;100.00;101873.94;6281079;22;20437;-80
2022/12/07 00:13:32;;;;;;;4.88;4.10;;;;;;;3.03;100.00;101874.66;6279997;22;20480;-80
2022/12/07 00:16:05;;;;;;;4.40;3.97;;;;;;;3.03;100.00;101876.53;6280304;22;20062;-80
2022/12/07 00:18:32;;;;;;;10.57;4.38;;;;;;;2.99;100.00;101873.84;6252682;22;20913;-80
2022/12/07 00:21:23;;;;;;;9.50;3.70;;;;;;;2.95;100.00;101873.81;6280955;22;20020;-80
2022/12/07 00:23:51;;;;;;;4.95;3.55;;;;;;;2.92;100.00;101871.91;6253399;22;20070;-78
2022/12/07 00:26:23;;;;;;;7.35;3.72;;;;;;;2.90;100.00;101868.88;6280320;22;20009;-78
2022/12/07 00:28:55;;;;;;;7.75;3.63;;;;;;;2.89;100.00;101871.84;6253004;22;20335;-78
2022/12/07 00:31:25;;;;;;;4.75;3.65;;;;;;;2.87;100.00;101861.69;6280706;22;20012;-78
2022/12/07 00:33:51;;;;;;;4.60;3.75;;;;;;;2.86;100.00;101856.78;6253253;22;20454;-78
2022/12/07 00:36:21;;;;;;;5.35;3.70;;;;;;;2.86;100.00;101854.16;6280165;22;20016;-78
2022/12/07 00:38:54;;;;;;;6.07;3.58;;;;;;;2.85;100.00;101858.66;6253762;22;20020;-78
2022/12/07 00:41:23;;;;;;;7.50;4.00;;;;;;;2.86;100.00;101854.16;6252843;22;20023;-78
2022/12/07 00:43:51;;;;;;;10.23;3.92;;;;;;;2.86;100.00;101854.91;6253305;22;20023;-78
2022/12/07 00:46:19;;;;;;;10.77;4.22;;;;;;;2.87;100.00;101853.03;6280269;22;20435;-78
2022/12/07 00:48:47;;;;;;;6.30;3.72;;;;;;;2.83;100.00;101844.34;6280347;22;20020;-78
2022/12/07 00:51:15;;;;;;;7.25;4.10;;;;;;;2.80;100.00;101851.09;6280466;22;20016;-78
2022/12/07 00:53:42;;;;;;;8.07;4.43;;;;;;;2.77;100.00;101843.94;6280383;22;20544;-77
2022/12/07 00:56:12;;;;;;;6.32;3.80;;;;;;;2.77;100.00;101848.44;6253586;22;20074;-77
2022/12/07 00:58:39;;;;;;;6.60;4.10;;;;;;;2.75;100.00;101842.78;6279957;22;20437;-77
2022/12/07 01:01:07;;;;;;;10.40;3.63;;;;;;;2.74;100.00;101849.16;6280864;22;20019;-79
2022/12/07 01:03:34;;;;;;;5.15;3.63;;;;;;;2.72;100.00;101846.88;6252858;22;20016;-79
2022/12/07 01:06:01;;;;;;;6.68;3.30;;;;;;;2.70;100.00;101849.13;6280733;22;20019;-79
2022/12/07 01:08:28;;;;;;;3.88;3.13;;;;;;;2.69;100.00;101839.72;6280021;22;20532;-80
2022/12/07 01:11:07;;;;;;;8.32;3.28;;;;;;;2.70;100.00;101840.47;6280848;22;20035;-79
2022/12/07 01:13:34;;;;;;;9.13;3.42;;;;;;;2.71;100.00;101842.00;6279462;22;20043;-78
2022/12/07 01:16:04;;;;;;;3.55;2.95;;;;;;;2.72;100.00;101840.88;6280738;22;20014;-78
2022/12/07 01:18:32;;;;;;;9.40;2.80;;;;;;;2.73;100.00;101839.75;6279912;22;20425;-78
2022/12/07 01:21:15;;;;;;;7.05;2.53;;;;;;;2.73;100.00;101837.88;6252991;22;20016;-78
2022/12/07 01:23:42;;;;;;;4.85;2.97;;;;;;;2.74;100.00;101838.63;6279884;22;20016;-78
2022/12/07 01:26:14;;;;;;;4.10;2.40;;;;;;;2.75;100.00;101853.31;6280411;22;20067;-77
2022/12/07 01:28:41;;;;;;;7.75;2.92;;;;;;;2.75;100.00;101845.41;6280124;22;20023;-78
2022/12/07 01:31:17;;;;;;;3.80;2.20;;;;;;;2.72;100.00;101849.50;6252872;22;20017;-77
2022/12/07 01:33:46;;;;;;;3.40;2.00;;;;;;;2.71;100.00;101850.63;6280260;22;20071;-77
2022/12/07 01:36:16;;;;;;;5.68;2.30;;;;;;;2.69;100.00;101844.97;6279956;22;20438;-77
2022/12/07 01:38:44;;;;;;;3.80;2.35;;;;;;;2.66;100.00;101851.69;6280338;22;20846;-77
2022/12/07 01:41:11;;;;;;;4.20;2.42;;;;;;;2.63;100.00;101844.53;6252545;22;20048;-78
2022/12/07 01:44:09;;;;;;;13.30;2.70;;;;;;;2.60;100.00;101847.09;6253038;22;20016;-77
2022/12/07 01:46:36;;;;;;;3.88;2.75;;;;;;;2.58;100.00;101846.72;6279310;22;20019;-77
2022/12/07 01:49:09;;;;;;;6.63;2.50;;;;;;;2.55;100.00;101842.91;6280383;22;20040;-77
2022/12/07 01:51:38;;;;;;;7.72;2.25;;;;;;;2.53;100.00;101847.03;6279930;22;20012;-77
2022/12/07 01:54:06;;;;;;;5.72;2.33;;;;;;;2.51;100.00;101854.50;6280536;22;20429;-78
2022/12/07 01:56:33;;;;;;;4.05;2.38;;;;;;;2.48;100.00;101850.72;6278849;22;20040;-77
2022/12/07 01:59:00;;;;;;;6.15;2.50;;;;;;;2.46;100.00;101845.06;6280158;22;20059;-77
2022/12/07 02:01:28;;;;;;;4.05;2.33;;;;;;;2.44;100.00;101846.53;6252295;22;20512;-77
2022/12/07 02:03:55;;;;;;;5.80;2.20;;;;;;;2.41;100.00;101848.00;6280194;22;20012;-77
2022/12/07 02:06:24;;;;;;;3.95;2.10;;;;;;;2.42;100.00;101840.88;6280263;22;20429;-77
2022/12/07 02:08:51;;;;;;;7.80;2.30;;;;;;;2.44;100.00;101847.28;6280484;22;20437;-77
2022/12/07 02:11:19;;;;;;;4.20;1.80;;;;;;;2.44;100.00;101847.28;6279362;22;20464;-77
2022/12/07 02:13:46;;;;;;;4.57;1.88;;;;;;;2.43;100.00;101848.41;6276660;22;20472;-77
2022/12/07 02:16:31;;;;;;;5.00;1.75;;;;;;;2.43;100.00;101843.13;6277929;22;20023;-77
2022/12/07 02:19:03;;;;;;;6.28;2.03;;;;;;;2.46;100.00;101842.44;6252435;22;20342;-77
2022/12/07 02:21:45;;;;;;;3.75;2.08;;;;;;;2.50;100.00;101840.59;6278464;22;20091;-77
2022/12/07 02:24:27;;;;;;;6.00;1.73;;;;;;;2.54;100.00;101846.66;6278579;22;20020;-77
2022/12/07 02:27:15;;;;;;;3.33;1.60;;;;;;;2.57;100.00;101840.69;6280113;22;20411;-77
2022/12/07 02:29:58;;;;;;;3.63;1.58;;;;;;;2.58;100.00;101836.19;6279555;22;20024;-77
2022/12/07 02:32:31;;;;;;;6.97;1.95;;;;;;;2.57;100.00;101845.94;6279521;22;20467;-77
2022/12/07 02:35:11;;;;;;;4.28;2.20;;;;;;;2.58;100.00;101841.44;6279874;22;20075;-77
2022/12/07 02:38:10;;;;;;;9.18;1.95;;;;;;;2.59;100.00;101838.47;6252487;22;20023;-77
2022/12/07 02:40:43;;;;;;;2.22;1.88;;;;;;;2.62;100.00;101837.75;6278844;22;20016;-77
2022/12/07 02:43:19;;;;;;;5.85;2.08;;;;;;;2.63;100.00;101833.25;6279972;22;20047;-77
2022/12/07 02:45:47;;;;;;;5.00;2.00;;;;;;;2.63;100.00;101828.00;6279429;22;20016;-77
2022/12/07 02:48:17;;;;;;;4.05;1.77;;;;;;;2.65;100.00;101838.91;6279552;22;20019;-77
2022/12/07 02:50:54;;;;;;;5.38;2.13;;;;;;;2.66;100.00;101827.28;6279574;22;20997;-77
2022/12/07 02:53:36;;;;;;;2.40;1.90;;;;;;;2.67;100.00;101832.19;6278998;22;20405;-77
2022/12/07 02:56:09;;;;;;;2.92;1.60;;;;;;;2.68;100.00;101838.94;6279945;22;20020;-77
2022/12/07 02:59:02;;;;;;;4.18;2.00;;;;;;;2.68;100.00;101835.56;6279113;22;20431;-77
2022/12/07 03:01:50;;;;;;;10.40;2.15;;;;;;;2.67;100.00;101834.06;6279264;22;20051;-77
2022/12/07 03:04:43;;;;;;;3.63;2.08;;;;;;;2.67;100.00;101829.56;6279385;22;20028;-77
2022/12/07 03:07:40;;;;;;;2.67;1.98;;;;;;;2.64;100.00;101838.16;6258142;22;20523;-78
2022/12/07 03:10:38;;;;;;;3.00;1.73;;;;;;;2.67;100.00;101847.19;6279200;22;20074;-78
2022/12/07 03:13:11;;;;;;;3.72;1.92;;;;;;;2.68;100.00;101846.09;6252373;22;20083;-76
2022/12/07 03:15:57;;;;;;;7.45;1.80;;;;;;;2.72;100.00;101830.34;6279182;22;20021;-76
2022/12/07 03:18:26;;;;;;;6.60;1.88;;;;;;;2.72;100.00;101822.47;6279216;22;20442;-76
2022/12/07 03:20:56;;;;;;;4.28;1.80;;;;;;;2.73;100.00;101819.47;6279402;22;20055;-76
2022/12/07 03:23:25;;;;;;;3.63;1.40;;;;;;;2.75;100.00;101832.25;6278293;22;20074;-77
2022/12/07 03:25:58;;;;;;;7.32;1.88;;;;;;;2.77;100.00;101822.16;6279543;22;20039;-77
2022/12/07 03:28:31;;;;;;;6.60;1.40;;;;;;;2.77;100.00;101825.53;6278694;22;20012;-77
2022/12/07 03:31:31;;;;;;;3.67;1.30;;;;;;;2.74;100.00;101821.00;6279719;22;20457;-77
2022/12/07 03:34:04;;;;;;;4.15;1.42;;;;;;;2.71;100.00;101821.72;6279595;22;20017;-77
2022/12/07 03:36:55;;;;;;;5.45;1.67;;;;;;;2.69;100.00;101823.94;6278911;22;20442;-77
2022/12/07 03:39:36;;;;;;;3.85;1.67;;;;;;;2.65;100.00;101816.00;6279279;22;20016;-77
2022/12/07 03:42:05;;;;;;;5.60;1.98;;;;;;;2.62;100.00;101815.97;6252370;22;20020;-77
2022/12/07 03:44:34;;;;;;;4.60;2.40;;;;;;;2.57;100.00;101814.41;6250994;22;20454;-76
2022/12/07 03:47:12;;;;;;;5.95;1.95;;;;;;;2.53;100.00;101815.47;6279793;22;20023;-77
2022/12/07 03:49:44;;;;;;;2.78;2.25;;;;;;;2.50;100.00;101818.81;6280852;22;20334;-77
2022/12/07 03:52:29;;;;;;;4.70;2.30;;;;;;;2.49;100.00;101801.53;6280391;22;20012;-77
2022/12/07 03:55:11;;;;;;;5.50;2.25;;;;;;;2.50;100.00;101810.94;6281137;22;20438;-77
2022/12/07 03:57:41;;;;;;;2.00;1.80;;;;;;;2.51;100.00;101810.56;6280803;22;20055;-76
2022/12/07 04:00:10;;;;;;;2.85;2.10;;;;;;;2.53;100.00;101818.09;6281272;22;20016;-77
2022/12/07 04:02:41;;;;;;;3.35;1.88;;;;;;;2.55;100.00;101813.25;6280729;22;20427;-77
2022/12/07 04:05:08;;;;;;;3.25;1.90;;;;;;;2.57;100.00;101821.53;6280916;22;20353;-77
2022/12/07 04:07:35;;;;;;;4.85;2.00;;;;;;;2.56;100.00;101818.16;6279714;22;20424;-77
2022/12/07 04:10:02;;;;;;;2.05;1.80;;;;;;;2.57;100.00;101811.03;6280947;22;20063;-77
2022/12/07 04:12:29;;;;;;;5.88;2.03;;;;;;;2.57;100.00;101809.16;6280266;22;20012;-77
2022/12/07 04:14:56;;;;;;;5.50;1.98;;;;;;;2.58;100.00;101800.16;6280782;22;20027;-77
2022/12/07 04:17:22;;;;;;;6.60;1.85;;;;;;;2.58;100.00;101799.38;6280677;22;20044;-77
2022/12/07 04:19:49;;;;;;;2.63;1.85;;;;;;;2.58;100.00;101800.16;6253610;22;20027;-77
2022/12/07 04:22:16;;;;;;;2.25;1.88;;;;;;;2.60;100.00;101805.03;6280054;22;20016;-77
2022/12/07 04:24:42;;;;;;;2.17;1.95;;;;;;;2.61;100.00;101798.69;6253490;22;20024;-78
2022/12/07 04:27:09;;;;;;;4.18;1.70;;;;;;;2.61;100.00;101802.06;6281012;22;20044;-78
2022/12/07 04:29:35;;;;;;;5.63;1.90;;;;;;;2.60;100.00;101803.19;6280292;22;20016;-77
2022/12/07 04:32:02;;;;;;;2.75;1.55;;;;;;;2.59;100.00;101804.28;6281036;22;20345;-77
2022/12/07 04:34:28;;;;;;;6.20;1.63;;;;;;;2.58;100.00;101800.16;6280092;22;20017;-77
2022/12/07 04:36:55;;;;;;;3.65;1.20;;;;;;;2.56;100.00;101804.25;6280405;22;20012;-78
2022/12/07 04:39:30;;;;;;;5.70;1.60;;;;;;;2.55;100.00;101808.00;6280438;22;20445;-77
2022/12/07 04:41:57;;;;;;;3.50;1.20;;;;;;;2.53;100.00;101807.59;6280941;22;20460;-77
2022/12/07 04:44:25;;;;;;;5.45;1.55;;;;;;;2.55;100.00;101805.34;6279951;22;20028;-77
2022/12/07 04:46:52;;;;;;;6.53;1.80;;;;;;;2.55;100.00;101810.63;6253679;22;20012;-77
2022/12/07 04:49:19;;;;;;;8.25;1.48;;;;;;;2.56;100.00;101809.50;6252936;22;20016;-77
2022/12/07 04:51:47;;;;;;;3.42;1.33;;;;;;;2.55;100.00;101806.13;6280397;22;20012;-77
2022/12/07 04:54:15;;;;;;;3.88;1.38;;;;;;;2.57;100.00;101801.25;6280416;22;20036;-77
2022/12/07 04:56:42;;;;;;;6.13;2.13;;;;;;;2.62;100.00;101805.44;6252693;22;20020;-78
2022/12/07 04:59:10;;;;;;;7.20;1.45;;;;;;;2.63;100.00;101797.19;6253583;22;20012;-77
2022/12/07 05:01:37;;;;;;;3.20;1.33;;;;;;;2.62;100.00;101794.94;6252435;22;20016;-77
2022/12/07 05:04:04;;;;;;;5.07;1.38;;;;;;;2.61;100.00;101794.16;6280038;22;20071;-77
2022/12/07 05:06:30;;;;;;;2.15;1.35;;;;;;;2.59;100.00;101785.88;6279859;22;20464;-77
2022/12/07 05:08:57;;;;;;;6.15;1.40;;;;;;;2.56;100.00;101783.97;6253232;22;20050;-77
2022/12/07 05:11:39;;;;;;;7.72;1.27;;;;;;;2.54;100.00;101785.44;6280012;22;20012;-78
2022/12/07 05:14:07;;;;;;;5.38;1.50;;;;;;;2.51;100.00;101781.66;6280624;22;20533;-78
2022/12/07 05:16:33;;;;;;;1.73;0.70;;;;;;;2.49;100.00;101786.50;6280001;22;20078;-77
2022/12/07 05:19:00;;;;;;;4.13;0.80;;;;;;;2.46;100.00;101781.97;6280025;22;20087;-78
2022/12/07 05:21:27;;;;;;;2.08;0.90;;;;;;;2.44;100.00;101789.47;6279825;22;20508;-78
2022/12/07 05:23:53;;;;;;;4.78;0.90;;;;;;;2.43;100.00;101782.69;6253397;22;20020;-78
2022/12/07 05:26:20;;;;;;;4.43;0.98;;;;;;;2.41;100.00;101781.53;6280298;22;20017;-78
2022/12/07 05:28:54;;;;;;;4.43;0.82;;;;;;;2.38;100.00;101788.28;6253040;22;20023;-77
2022/12/07 05:31:22;;;;;;;3.75;0.80;;;;;;;2.37;100.00;101780.75;6280397;22;20781;-77
2022/12/07 05:33:48;;;;;;;2.72;0.85;;;;;;;2.34;100.00;101776.97;6280095;22;20016;-77
2022/12/07 05:36:15;;;;;;;0.60;0.38;;;;;;;2.30;100.00;101779.56;6280279;22;20401;-77
2022/12/07 05:38:41;;;;;;;3.63;0.82;;;;;;;2.29;100.00;101779.91;6252681;22;20354;-77
2022/12/07 05:42:11;;;;;;;5.05;0.90;;;;;;;2.25;100.00;101779.88;6280430;22;20012;-77
2022/12/07 05:43:58;;;;;;;2.05;0.80;;;;;;;2.24;100.00;101788.09;6280189;22;20659;-77
2022/12/07 05:46:25;;;;;;;3.30;0.90;;;;;;;2.22;100.00;101788.47;6252185;22;20027;-77
2022/12/07 05:48:51;;;;;;;2.70;1.10;;;;;;;2.20;100.00;101790.69;6252777;22;20012;-77
2022/12/07 05:51:18;;;;;;;2.55;0.80;;;;;;;2.18;100.00;101781.63;6280012;22;20017;-77
2022/12/07 05:53:45;;;;;;;4.70;0.90;;;;;;;2.19;100.00;101789.16;6252918;22;20415;-77
2022/12/07 05:56:12;;;;;;;3.33;1.35;;;;;;;2.20;100.00;101789.91;6280257;22;20078;-77
2022/12/07 06:01:23;;;;;;;4.70;1.08;;;;;;;2.18;100.00;101786.91;6279860;22;20450;-77
2022/12/07 06:03:50;;;;;;;2.05;0.90;;;;;;;2.18;100.00;101790.28;6279796;22;20020;-77
2022/12/07 06:06:16;;;;;;;2.47;1.08;;;;;;;2.17;100.00;101785.38;6280097;22;20012;-78
2022/12/07 06:08:43;;;;;;;9.07;0.88;;;;;;;2.17;100.00;101788.75;6253091;22;20522;-78
2022/12/07 06:13:54;;;;;;;6.63;1.35;;;;;;;2.15;100.00;101791.00;6280374;22;20059;-78
2022/12/07 06:16:21;;;;;;;3.75;1.02;;;;;;;2.13;100.00;101792.47;6279123;22;20039;-77
2022/12/07 06:18:50;;;;;;;3.70;1.27;;;;;;;2.11;100.00;101779.69;6253692;22;20012;-78
2022/12/07 06:21:16;;;;;;;4.60;1.30;;;;;;;2.12;100.00;101790.94;6279932;22;20046;-78
2022/12/07 06:23:43;;;;;;;4.30;1.40;;;;;;;2.11;100.00;101792.81;6252520;22;20943;-78
2022/12/07 06:26:09;;;;;;;9.77;1.30;;;;;;;2.11;100.00;101797.31;6279923;22;20052;-78
2022/12/07 06:28:36;;;;;;;3.63;1.40;;;;;;;2.12;100.00;101794.31;6252340;22;20035;-78
2022/12/07 06:31:02;;;;;;;5.22;1.08;;;;;;;2.12;100.00;101798.81;6279537;22;20080;-78
2022/12/07 06:33:31;;;;;;;4.97;1.10;;;;;;;2.11;100.00;101787.56;6278937;22;20532;-78
2022/12/07 06:35:58;;;;;;;7.75;1.50;;;;;;;2.10;100.00;101793.16;6280056;22;20155;-78
2022/12/07 06:38:25;;;;;;;3.20;1.25;;;;;;;2.08;100.00;101793.50;6280234;22;20016;-79
2022/12/07 06:40:51;;;;;;;3.55;1.50;;;;;;;2.09;100.00;101795.03;6280998;22;20099;-79
2022/12/07 06:43:17;;;;;;;8.75;1.60;;;;;;;2.09;100.00;101789.03;6280770;22;20382;-79
2022/12/07 06:45:44;;;;;;;2.10;1.33;;;;;;;2.09;100.00;101792.41;6279619;22;20095;-79
2022/12/07 06:48:10;;;;;;;3.80;1.20;;;;;;;2.09;100.00;101789.03;6280882;22;20016;-79
2022/12/07 06:50:37;;;;;;;7.90;1.50;;;;;;;2.09;100.00;101796.91;6252997;22;20046;-79
2022/12/07 06:53:03;;;;;;;2.97;1.27;;;;;;;2.08;100.00;101796.16;6280696;22;20426;-79
2022/12/07 06:55:30;;;;;;;4.35;1.73;;;;;;;2.07;100.00;101794.63;6227682;22;20071;-78
2022/12/07 06:57:57;;;;;;;2.78;1.58;;;;;;;2.03;100.00;101796.44;6280704;22;20020;-79
2022/12/07 07:00:24;;;;;;;7.32;1.80;;;;;;;2.01;100.00;101801.28;6279647;22;20021;-78
2022/12/07 07:02:50;;;;;;;6.45;1.70;;;;;;;1.97;100.00;101797.88;6280821;22;20520;-78
2022/12/07 07:05:17;;;;;;;5.97;1.15;;;;;;;1.94;100.00;101798.59;6280558;22;20456;-80
2022/12/07 07:07:43;;;;;;;4.20;1.38;;;;;;;1.90;100.00;101790.66;6280354;22;20042;-81
2022/12/07 07:10:30;;;;;;;4.20;1.42;;;;;;;1.90;100.00;101789.91;6252864;22;20016;-80
2022/12/07 07:12:56;;;;;;;2.67;1.30;;;;;;;1.88;100.00;101789.50;6280544;22;20020;-79
2022/12/07 07:15:23;;;;;;;3.67;1.40;;;;;;;1.87;100.00;101793.25;6279771;22;20016;-79
2022/12/07 07:17:50;;;;;;;2.13;1.45;;;;;;;1.87;100.00;101788.75;6253011;22;20026;-79
2022/12/07 07:20:17;;;;;;;4.20;1.63;;;;;;;1.85;100.00;101796.22;6280348;22;20354;-79
2022/12/07 07:22:43;;;;;;;5.43;2.30;;;;;;;1.85;100.00;101795.47;6280462;22;20438;-79
2022/12/07 07:25:09;;;;;;;6.88;2.42;;;;;;;1.85;100.00;101796.22;6281567;22;20016;-79
2022/12/07 07:27:36;;;;;;;3.25;2.05;;;;;;;1.82;100.00;101796.91;6228606;22;20016;-80
2022/12/07 07:30:04;;;;;;;9.63;2.33;;;;;;;1.82;100.00;101798.78;6280935;22;20428;-80
2022/12/07 07:32:30;;;;;;;7.47;2.10;;;;;;;1.80;100.00;101793.88;6281563;22;20446;-80
2022/12/07 07:34:57;;;;;;;5.85;1.92;;;;;;;1.79;100.00;101789.00;6254272;22;20070;-81
2022/12/07 07:37:23;;;;;;;2.97;1.42;;;;;;;1.76;100.00;101787.81;6281365;22;20024;-84
2022/12/07 07:39:50;;;;;;;11.15;1.63;;;;;;;1.74;100.00;101787.44;6281776;22;20085;-78
2022/12/07 07:42:17;;;;;;;9.93;1.58;;;;;;;1.70;100.00;101794.50;6281606;22;20020;-77
2022/12/07 07:44:45;;;;;;;6.90;1.92;;;;;;;1.68;100.00;101800.09;6252873;22;20020;-77
2022/12/07 07:47:11;;;;;;;7.28;1.90;;;;;;;1.68;100.00;101800.09;6281893;22;20041;-78
2022/12/07 07:49:38;;;;;;;6.50;1.83;;;;;;;1.70;100.00;101798.97;6281082;22;20043;-78
2022/12/07 07:52:13;;;;;;;4.88;1.90;;;;;;;1.70;100.00;101793.72;6281694;22;20016;-78
2022/12/07 07:54:39;;;;;;;3.75;1.95;;;;;;;1.68;100.00;101800.09;6254205;22;20532;-78
2022/12/07 07:57:05;;;;;;;1.25;1.15;;;;;;;1.68;100.00;101794.84;6281097;22;20036;-77
2022/12/07 07:59:32;;;;;;;2.78;1.40;;;;;;;1.71;100.00;101800.50;6280854;22;20050;-81
2022/12/07 08:01:58;;;;;;;3.33;1.60;;;;;;;1.72;100.00;101805.41;6255464;22;20039;-81
2022/12/07 08:04:25;;;;;;;5.45;1.55;;;;;;;1.75;100.00;101801.31;6281440;22;20016;-78
2022/12/07 08:06:52;;;;;;;4.55;1.77;;;;;;;1.79;100.00;101805.50;6281588;22;20020;-79
2022/12/07 08:09:19;;;;;;;7.47;1.85;;;;;;;1.82;100.00;101796.91;6281741;22;20012;-80
2022/12/07 08:11:46;;;;;;;2.42;1.60;;;;;;;1.85;100.00;101803.34;6281397;22;20020;-79
2022/12/07 08:14:12;;;;;;;8.93;2.22;;;;;;;1.87;100.00;101804.50;6281162;22;20511;-79
2022/12/07 08:16:39;;;;;;;5.03;1.70;;;;;;;1.88;100.00;101803.38;6281585;22;20012;-79
2022/12/07 08:19:06;;;;;;;4.57;1.80;;;;;;;1.90;100.00;101810.91;6281601;22;20016;-79
2022/12/07 08:21:32;;;;;;;5.72;2.05;;;;;;;1.94;100.00;101814.34;6281325;22;20058;-78
2022/12/07 08:23:59;;;;;;;5.25;1.80;;;;;;;2.01;100.00;101819.69;6281689;22;20442;-78
2022/12/07 08:26:25;;;;;;;4.03;1.70;;;;;;;2.10;100.00;101822.06;6281272;22;20016;-78
2022/12/07 08:28:52;;;;;;;8.95;1.95;;;;;;;2.19;100.00;101828.56;6280957;22;20079;-79
2022/12/07 08:31:19;;;;;;;5.50;1.52;;;;;;;2.27;100.00;101822.31;6281504;22;20435;-80
2022/12/07 08:33:48;;;;;;;3.63;1.85;;;;;;;2.36;100.00;101819.41;6253453;22;20052;-80
2022/12/07 08:36:16;;;;;;;13.18;2.00;;;;;;;2.42;100.00;101814.59;6281472;22;20323;-81
2022/12/07 08:38:42;;;;;;;3.42;1.52;;;;;;;2.47;100.00;101809.78;6281098;22;20043;-81
2022/12/07 08:41:29;;;;;;;6.80;1.90;;;;;;;2.54;100.00;101811.72;6280699;22;20106;-80
2022/12/07 08:43:55;;;;;;;5.07;1.35;;;;;;;2.60;100.00;101813.69;6253984;22;20102;-80
2022/12/07 08:46:46;;;;;;;6.10;1.20;;;;;;;2.67;100.00;101815.66;6253772;22;20456;-80
2022/12/07 08:49:18;;;;;;;1.85;1.70;;;;;;;2.72;100.00;101812.72;6254197;22;20016;-80
2022/12/07 08:51:44;;;;;;;3.03;1.85;;;;;;;2.77;100.00;101811.63;6280938;22;20016;-79
2022/12/07 08:54:16;;;;;;;9.15;3.80;;;;;;;2.84;100.00;101811.69;6254141;22;20012;-79
2022/12/07 08:56:44;;;;;;;10.18;3.75;;;;;;;2.87;100.00;101814.34;6280509;22;20024;-79
2022/12/07 08:59:14;;;;;;;12.25;2.90;;;;;;;2.90;100.00;101810.25;6281422;22;20134;-79
2022/12/07 09:01:41;;;;;;;5.40;1.77;;;;;;;2.91;100.00;101820.41;6281323;22;20100;-79
2022/12/07 09:04:08;;;;;;;7.93;2.20;;;;;;;2.89;100.00;101812.13;6280788;22;20023;-79
2022/12/07 09:06:35;;;;;;;3.88;1.50;;;;;;;2.88;100.00;101813.22;6253353;22;20096;-79
2022/12/07 09:09:03;;;;;;;6.45;1.70;;;;;;;2.90;100.00;101812.88;6281613;22;20017;-79
2022/12/07 09:11:29;;;;;;;4.50;1.30;;;;;;;2.92;100.00;101818.53;6253647;22;20024;-79
2022/12/07 09:13:56;;;;;;;7.55;1.30;;;;;;;2.94;100.00;101811.03;6281651;22;20732;-79
2022/12/07 09:16:22;;;;;;;6.72;1.60;;;;;;;2.98;100.00;101812.59;6281420;22;20527;-80
2022/12/07 09:18:49;;;;;;;2.08;1.50;;;;;;;3.03;100.00;101811.50;6281402;22;20438;-79
2022/12/07 09:21:15;;;;;;;4.93;1.70;;;;;;;3.08;100.00;101805.16;6281236;22;20017;-79
2022/12/07 09:23:42;;;;;;;5.28;1.45;;;;;;;3.14;100.00;101806.34;6253940;22;20019;-79
2022/12/07 09:26:09;;;;;;;3.97;1.38;;;;;;;3.24;100.00;101821.47;6280676;22;20016;-79
2022/12/07 09:28:37;;;;;;;4.30;1.48;;;;;;;3.34;100.00;101828.72;6280610;22;20019;-79
2022/12/07 09:31:05;;;;;;;10.10;1.50;;;;;;;3.39;100.00;101822.34;6253947;22;20464;-79
2022/12/07 09:33:58;;;;;;;5.15;1.77;;;;;;;3.46;100.00;101825.81;6258087;22;20438;-79
2022/12/07 09:36:27;;;;;;;4.68;2.28;;;;;;;3.49;100.00;101826.97;6280751;22;20020;-79
2022/12/07 09:38:54;;;;;;;5.07;1.40;;;;;;;3.51;100.00;101822.84;6281030;22;20043;-79
2022/12/07 09:41:21;;;;;;;3.53;1.38;;;;;;;3.52;100.00;101821.72;6280260;22;20434;-78
2022/12/07 09:43:49;;;;;;;3.38;1.35;;;;;;;3.54;100.00;101814.22;6281138;22;20391;-79
2022/12/07 09:46:19;;;;;;;6.20;1.52;;;;;;;3.59;100.00;101818.41;6280033;22;20020;-78
2022/12/07 09:48:48;;;;;;;6.85;1.90;;;;;;;3.66;100.00;101819.19;6280783;22;20012;-78
2022/12/07 09:51:18;;;;;;;3.17;1.58;;;;;;;3.73;100.00;101815.09;6280893;22;20020;-78
2022/12/07 09:53:51;;;;;;;4.50;1.83;;;;;;;3.76;100.00;101817.00;6280507;22;20048;-78
2022/12/07 09:56:19;;;;;;;4.43;1.58;;;;;;;3.79;100.00;101822.28;6253957;22;20016;-78
2022/12/07 09:58:46;;;;;;;4.57;1.77;;;;;;;3.82;100.00;101816.28;6280487;22;20066;-78
2022/12/07 10:01:15;;;;;;;1.90;1.02;;;;;;;3.84;100.00;101815.94;6280749;22;20021;-75
2022/12/07 10:03:50;;;;;;;7.38;1.52;;;;;;;3.86;100.00;101811.81;6252951;22;20016;-76
2022/12/07 10:06:17;;;;;;;3.25;1.10;;;;;;;3.90;100.00;101806.56;6280949;22;20021;-78
2022/12/07 10:08:43;;;;;;;4.00;1.48;;;;;;;3.92;100.00;101805.06;6252784;22;20056;-78
2022/12/07 10:11:11;;;;;;;6.03;1.60;;;;;;;3.94;100.00;101804.69;6280678;22;20013;-78
2022/12/07 10:13:50;;;;;;;3.72;1.10;;;;;;;3.94;100.00;101807.34;6280511;22;20038;-77
2022/12/07 10:16:39;;;;;;;2.92;0.80;;;;;;;3.95;100.00;101806.22;6280920;22;20016;-77
2022/12/07 10:19:29;;;;;;;3.90;0.70;;;;;;;4.02;100.00;101804.34;6280935;22;20012;-76
2022/12/07 10:22:12;;;;;;;4.90;1.17;;;;;;;4.12;100.00;101795.00;6280888;22;20468;-78
2022/12/07 10:24:40;;;;;;;2.25;1.23;;;;;;;4.23;100.00;101793.19;6252750;22;20020;-79
2022/12/07 10:27:31;;;;;;;3.97;1.48;;;;;;;4.40;100.00;101783.81;6280709;22;20020;-77
2022/12/07 10:29:59;;;;;;;3.08;1.85;;;;;;;4.43;100.00;101780.44;6280801;22;20066;-78
2022/12/07 10:32:34;;;;;;;4.38;1.20;;;;;;;4.43;100.00;101779.69;6280494;22;20070;-78
2022/12/07 10:35:19;;;;;;;3.88;1.02;;;;;;;4.38;100.00;101780.06;6253710;22;20016;-79
2022/12/07 10:37:46;;;;;;;4.10;1.48;;;;;;;4.33;100.00;101779.28;6279779;22;20413;-77
2022/12/07 10:40:36;;;;;;;2.65;1.17;;;;;;;4.30;100.00;101776.66;6280623;22;20172;-79
2022/12/07 10:43:12;;;;;;;4.43;1.35;;;;;;;4.34;100.00;101767.63;6280775;22;20016;-78
2022/12/07 10:45:48;;;;;;;6.57;1.60;;;;;;;4.39;100.00;101771.03;6252756;22;20027;-76
2022/12/07 10:48:59;;;;;;;4.85;1.65;;;;;;;4.38;100.00;101764.25;6280387;22;20016;-78
2022/12/07 10:51:32;;;;;;;4.13;1.58;;;;;;;4.45;100.00;101764.25;6252841;22;20016;-80
2022/12/07 10:54:24;;;;;;;6.57;1.60;;;;;;;4.46;100.00;101769.16;6252643;22;20024;-79
2022/12/07 10:57:05;;;;;;;3.90;1.38;;;;;;;4.48;100.00;101763.50;6253846;22;20016;-78
2022/12/07 11:00:11;;;;;;;88.72;51.13;;;;;;;4.52;100.00;101762.41;6281241;22;20012;-77
2022/12/07 11:03:02;;;;;;;9.00;4.05;;;;;;;4.59;100.00;101761.66;6234653;22;20024;-77
2022/12/07 11:05:37;;;;;;;7.45;1.85;;;;;;;4.60;100.00;101753.38;6254321;22;20066;-76
2022/12/07 11:08:22;;;;;;;3.33;1.38;;;;;;;4.68;100.00;101756.78;6253968;22;20465;-79
2022/12/07 11:11:06;;;;;;;5.03;1.60;;;;;;;4.83;100.00;101753.03;6281855;22;20016;-78
2022/12/07 11:13:56;;;;;;;5.72;1.40;;;;;;;4.89;99.55;101743.63;6281347;22;20075;-77
2022/12/07 11:16:39;;;;;;;5.75;1.65;;;;;;;4.98;99.05;101745.91;6213174;22;20055;-77
2022/12/07 11:19:20;;;;;;;3.88;1.25;;;;;;;5.04;98.78;101752.31;6281956;22;20016;-77
2022/12/07 11:22:22;;;;;;;4.97;1.25;;;;;;;5.01;97.92;101745.16;6282250;22;20044;-84
2022/12/07 11:25:07;;;;;;;3.80;1.20;;;;;;;4.97;97.70;101745.13;6277739;22;20528;-79
2022/12/07 11:27:41;;;;;;;3.83;1.13;;;;;;;4.91;97.50;101738.72;6282526;22;20450;-79
2022/12/07 11:30:14;;;;;;;2.00;1.23;;;;;;;4.88;97.69;101739.47;6254405;22;20012;-76
2022/12/07 11:32:45;;;;;;;7.40;1.60;;;;;;;4.82;97.32;101734.94;6281758;22;20019;-78
2022/12/07 11:35:34;;;;;;;5.65;1.50;;;;;;;4.78;97.69;101734.97;6281704;22;20016;-76
2022/12/07 11:38:11;;;;;;;5.57;1.73;;;;;;;4.74;97.65;101731.56;6282024;22;20016;-79
2022/12/07 11:40:40;;;;;;;4.45;1.20;;;;;;;4.69;97.56;101724.75;6282870;22;20024;-80
2022/12/07 11:43:32;;;;;;;6.72;1.33;;;;;;;4.69;97.66;101719.50;6255962;22;20095;-78
2022/12/07 11:46:11;;;;;;;2.83;1.38;;;;;;;4.75;97.61;101717.25;6281326;22;20023;-82
2022/12/07 11:48:45;;;;;;;4.13;1.30;;;;;;;4.79;97.37;101714.59;6281409;22;20477;-81
2022/12/07 11:51:12;;;;;;;2.63;1.23;;;;;;;4.81;97.24;101714.97;6254209;22;20493;-80